createdAt,value
2019-01-16T00:00:56.736Z,9.67
2019-01-16T00:03:35.932Z,9.93
2019-01-16T00:06:09.308Z,8.47
2019-01-16T00:08:55.063Z,9.20
2019-01-16T00:11:40.517Z,9.07
2019-01-16T00:14:16.573Z,8.00
2019-01-16T00:16:43.991Z,9.37
2019-01-16T00:19:17.017Z,7.83
2019-01-16T00:22:02.542Z,8.20
2019-01-16T00:24:29.956Z,8.20
2019-01-16T00:27:15.509Z,8.10
2019-01-16T00:29:55.068Z,7.23
2019-01-16T00:32:40.730Z,7.93
2019-01-16T00:35:11.234Z,8.50
2019-01-16T00:37:53.654Z,8.20
2019-01-16T00:40:39.519Z,7.80
2019-01-16T00:43:06.922Z,7.87
2019-01-16T00:45:49.560Z,7.83
2019-01-16T00:48:24.625Z,7.97
2019-01-16T00:50:52.556Z,8.17
2019-01-16T00:53:19.962Z,7.47
2019-01-16T00:55:53.402Z,8.07
2019-01-16T00:58:35.526Z,8.50
2019-01-16T01:01:08.651Z,7.80
2019-01-16T01:03:38.852Z,8.30
2019-01-16T01:06:15.332Z,7.83
2019-01-16T01:08:45.872Z,8.07
2019-01-16T01:11:19.270Z,8.43
2019-01-16T01:13:46.830Z,8.50
2019-01-16T01:16:16.828Z,9.60
2019-01-16T01:19:02.217Z,8.73
2019-01-16T01:21:35.485Z,9.20
2019-01-16T01:24:21.013Z,9.13
2019-01-16T01:26:48.442Z,9.50
2019-01-16T01:29:18.571Z,9.53
2019-01-16T01:31:51.960Z,9.40
2019-01-16T01:34:31.377Z,8.80
2019-01-16T01:36:58.802Z,9.23
2019-01-16T01:39:28.731Z,9.03
2019-01-16T01:42:14.060Z,8.67
2019-01-16T01:44:56.266Z,8.47
2019-01-16T01:47:29.390Z,9.10
2019-01-16T01:50:02.636Z,9.13
2019-01-16T01:52:42.172Z,9.27
2019-01-16T01:55:15.594Z,8.60
2019-01-16T01:58:01.207Z,9.83
2019-01-16T02:00:31.091Z,9.50
2019-01-16T02:03:07.310Z,9.10
2019-01-16T02:05:43.465Z,9.07
2019-01-16T02:08:10.910Z,9.13
2019-01-16T02:10:44.126Z,9.73
2019-01-16T02:13:18.260Z,8.80
2019-01-16T02:15:45.933Z,8.70
2019-01-16T02:18:31.348Z,9.67
2019-01-16T02:21:07.614Z,8.83
2019-01-16T02:23:43.770Z,8.87
2019-01-16T02:26:29.262Z,9.40
2019-01-16T02:29:08.654Z,8.80
2019-01-16T02:31:38.782Z,9.30
2019-01-16T02:34:15.267Z,8.33
2019-01-16T02:36:48.763Z,8.97
2019-01-16T02:39:28.293Z,8.27
2019-01-16T02:42:04.918Z,8.27
2019-01-16T02:44:38.710Z,9.13
2019-01-16T02:47:09.067Z,8.03
2019-01-16T02:49:54.538Z,7.93
2019-01-16T02:52:31.216Z,8.00
2019-01-16T02:54:58.626Z,8.63
2019-01-16T02:57:26.085Z,8.17
2019-01-16T02:59:53.487Z,7.67
2019-01-16T03:02:29.620Z,7.90
2019-01-16T03:04:59.636Z,7.83
2019-01-16T03:07:36.305Z,7.37
2019-01-16T03:10:03.715Z,7.07
2019-01-16T03:12:43.284Z,7.57
2019-01-16T03:15:10.712Z,7.93
2019-01-16T03:17:47.161Z,6.70
2019-01-16T03:20:17.763Z,6.70
2019-01-16T03:22:53.932Z,7.27
2019-01-16T03:25:30.678Z,6.93
2019-01-16T03:28:07.066Z,6.27
2019-01-16T03:30:34.471Z,6.70
2019-01-16T03:33:04.725Z,6.40
2019-01-16T03:35:34.895Z,6.37
2019-01-16T03:38:05.284Z,5.77
2019-01-16T03:40:35.658Z,6.10
2019-01-16T03:43:12.085Z,6.60
2019-01-16T03:45:44.067Z,6.03
2019-01-16T03:48:17.192Z,6.63
2019-01-16T03:50:44.619Z,6.13
2019-01-16T03:53:27.248Z,5.30
2019-01-16T03:56:13.090Z,5.53
2019-01-16T03:58:49.704Z,5.67
2019-01-16T04:01:35.355Z,5.75
2019-01-16T04:04:17.709Z,5.80
2019-01-16T04:06:45.115Z,5.43
2019-01-16T04:09:15.440Z,5.47
2019-01-16T04:11:45.540Z,5.40
2019-01-16T04:14:18.531Z,5.10
2019-01-16T04:16:54.660Z,4.67
2019-01-16T04:19:34.252Z,5.37
2019-01-16T04:22:06.401Z,5.60
2019-01-16T04:24:31.531Z,5.47
2019-01-16T04:26:58.964Z,4.93
2019-01-16T04:29:26.373Z,4.93
2019-01-16T04:32:12.596Z,4.63
2019-01-16T04:34:46.222Z,5.23
2019-01-16T04:37:13.658Z,5.33
2019-01-16T04:39:47.093Z,5.80
2019-01-16T04:42:14.511Z,4.50
2019-01-16T04:44:47.530Z,4.87
2019-01-16T04:47:17.941Z,4.63
2019-01-16T04:49:51.167Z,5.30
2019-01-16T04:52:21.529Z,4.80
2019-01-16T04:54:48.931Z,4.33
2019-01-16T04:57:18.861Z,4.40
2019-01-16T04:59:52.064Z,4.87
2019-01-16T05:02:38.252Z,4.33
2019-01-16T05:05:05.684Z,4.30
2019-01-16T05:07:33.097Z,4.40
2019-01-16T05:10:00.524Z,4.33
2019-01-16T05:12:29.416Z,4.23
2019-01-16T05:14:55.352Z,4.20
2019-01-16T05:17:22.778Z,4.27
2019-01-16T05:19:58.931Z,3.90
2019-01-16T05:22:29.070Z,4.20
2019-01-16T05:25:02.440Z,3.77
2019-01-16T05:27:32.425Z,3.80
2019-01-16T05:30:14.919Z,3.50
2019-01-16T05:32:57.419Z,4.07
2019-01-16T05:35:33.707Z,3.70
2019-01-16T05:38:09.996Z,3.80
2019-01-16T05:40:55.508Z,3.50
2019-01-16T05:43:34.949Z,3.67
2019-01-16T05:46:20.706Z,4.00
2019-01-16T05:48:54.073Z,3.63
2019-01-16T05:51:36.540Z,4.10
2019-01-16T05:54:22.311Z,4.13
2019-01-16T05:56:58.396Z,4.00
2019-01-16T05:59:43.839Z,4.20
2019-01-16T06:02:29.535Z,3.80
2019-01-16T06:04:59.871Z,4.80
2019-01-16T06:07:45.265Z,4.50
2019-01-16T06:10:30.605Z,4.40
2019-01-16T06:13:16.445Z,5.17
2019-01-16T06:15:43.892Z,5.13
2019-01-16T06:18:20.129Z,6.03
2019-01-16T06:21:05.671Z,5.17
2019-01-16T06:23:51.184Z,5.10
2019-01-16T06:26:21.102Z,5.73
2019-01-16T06:28:48.493Z,5.70
2019-01-16T06:31:25.129Z,5.70
2019-01-16T06:34:10.741Z,5.70
2019-01-16T06:36:40.984Z,6.67
2019-01-16T06:39:14.416Z,6.07
2019-01-16T06:41:54.149Z,6.03
2019-01-16T06:44:27.835Z,6.40
2019-01-16T06:46:55.245Z,5.90
2019-01-16T06:49:28.445Z,5.73
2019-01-16T06:51:58.688Z,5.93
2019-01-16T06:54:28.812Z,6.50
2019-01-16T06:57:05.048Z,5.67
2019-01-16T06:59:50.710Z,6.47
2019-01-16T07:02:29.913Z,6.83
2019-01-16T07:05:12.583Z,6.63
2019-01-16T07:07:40.004Z,7.00
2019-01-16T07:10:07.404Z,7.07
2019-01-16T07:12:40.751Z,7.13
2019-01-16T07:15:13.877Z,7.63
2019-01-16T07:17:50.448Z,7.93
2019-01-16T07:20:23.754Z,8.43
2019-01-16T07:22:51.145Z,7.60
2019-01-16T07:25:18.558Z,8.90
2019-01-16T07:27:51.750Z,9.80
2019-01-16T07:30:31.231Z,9.30
2019-01-16T07:33:16.873Z,10.40
2019-01-16T07:35:44.302Z,11.20
2019-01-16T07:38:31.342Z,9.97
2019-01-16T07:40:57.133Z,11.50
2019-01-16T07:43:30.058Z,11.67
2019-01-16T07:46:03.054Z,11.77
2019-01-16T07:48:30.471Z,11.40
2019-01-16T07:51:06.971Z,12.17
2019-01-16T07:53:34.403Z,14.20
2019-01-16T07:56:01.800Z,13.93
2019-01-16T07:58:31.950Z,13.33
2019-01-16T08:00:59.343Z,14.23
2019-01-16T08:03:44.746Z,13.33
2019-01-16T08:06:30.466Z,14.83
2019-01-16T08:09:06.638Z,14.80
2019-01-16T08:11:36.524Z,13.90
2019-01-16T08:14:03.933Z,14.20
2019-01-16T08:16:31.373Z,14.30
2019-01-16T08:18:58.793Z,13.87
2019-01-16T08:21:44.388Z,13.93
2019-01-16T08:24:14.482Z,14.20
2019-01-16T08:26:41.880Z,13.73
2019-01-16T08:29:11.829Z,14.30
2019-01-16T08:31:51.318Z,13.67
2019-01-16T08:34:21.728Z,12.97
2019-01-16T08:37:06.924Z,12.70
2019-01-16T08:39:35.468Z,12.77
2019-01-16T08:42:13.718Z,13.00
2019-01-16T08:44:59.428Z,11.50
2019-01-16T08:47:44.973Z,12.30
2019-01-16T08:50:12.409Z,11.07
2019-01-16T08:52:42.530Z,12.10
2019-01-16T08:55:28.083Z,11.30
2019-01-16T08:57:55.495Z,11.03
2019-01-16T09:00:22.960Z,10.97
2019-01-16T09:03:02.523Z,11.10
2019-01-16T09:05:45.839Z,9.73
2019-01-16T09:08:13.264Z,9.93
2019-01-16T09:10:49.464Z,11.47
2019-01-16T09:13:31.762Z,10.33
2019-01-16T09:16:02.012Z,11.23
2019-01-16T09:18:35.242Z,10.40
2019-01-16T09:21:02.669Z,9.70
2019-01-16T09:23:39.238Z,10.33
2019-01-16T09:26:25.043Z,9.17
2019-01-16T09:28:55.219Z,10.33
2019-01-16T09:31:28.395Z,10.27
2019-01-16T09:33:55.810Z,9.30
2019-01-16T09:36:28.938Z,8.33
2019-01-16T09:39:01.990Z,8.70
2019-01-16T09:41:29.416Z,10.30
2019-01-16T09:43:56.844Z,8.20
2019-01-16T09:46:27.358Z,8.20
2019-01-16T09:48:54.768Z,8.70
2019-01-16T09:51:24.948Z,8.53
2019-01-16T09:54:10.346Z,7.57
2019-01-16T09:56:52.949Z,7.03
2019-01-16T09:59:24.377Z,7.27
2019-01-16T10:02:00.721Z,7.73
2019-01-16T10:04:33.811Z,7.53
2019-01-16T10:07:13.181Z,6.70
2019-01-16T10:09:49.146Z,6.93
2019-01-16T10:12:31.832Z,7.10
2019-01-16T10:15:08.419Z,6.17
2019-01-16T10:17:38.340Z,7.43
2019-01-16T10:20:20.620Z,7.00
2019-01-16T10:22:48.037Z,7.07
2019-01-16T10:25:30.690Z,7.27
2019-01-16T10:28:00.973Z,6.80
2019-01-16T10:30:28.376Z,7.50
2019-01-16T10:32:58.661Z,7.33
2019-01-16T10:35:29.011Z,7.03
2019-01-16T10:38:11.339Z,7.80
2019-01-16T10:40:38.751Z,7.23
2019-01-16T10:43:12.246Z,7.67
2019-01-16T10:45:48.578Z,7.73
2019-01-16T10:48:18.554Z,8.17
2019-01-16T10:50:45.992Z,7.30
2019-01-16T10:53:13.410Z,7.57
2019-01-16T10:55:56.074Z,7.50
2019-01-16T10:58:35.264Z,8.60
2019-01-16T11:01:05.421Z,7.57
2019-01-16T11:03:50.988Z,8.60
2019-01-16T11:06:18.440Z,8.07
2019-01-16T11:08:57.687Z,8.00
2019-01-16T11:11:30.989Z,8.07
2019-01-16T11:14:03.573Z,8.10
2019-01-16T11:16:33.976Z,8.33
2019-01-16T11:19:07.296Z,7.60
2019-01-16T11:21:40.449Z,6.77
2019-01-16T11:24:26.052Z,6.87
2019-01-16T11:27:11.378Z,6.30
2019-01-16T11:29:44.705Z,5.77
2019-01-16T11:32:14.678Z,6.33
2019-01-16T11:34:42.085Z,6.67
2019-01-16T11:37:21.152Z,6.63
2019-01-16T11:39:48.543Z,6.20
2019-01-16T11:42:34.497Z,5.57
2019-01-16T11:45:07.666Z,6.13
2019-01-16T11:47:35.069Z,6.80
2019-01-16T11:50:11.604Z,5.00
2019-01-16T11:52:50.895Z,5.97
2019-01-16T11:55:30.586Z,6.47
2019-01-16T11:58:00.849Z,6.63
2019-01-16T12:00:37.466Z,5.83
2019-01-16T12:03:07.510Z,6.10
2019-01-16T12:05:53.187Z,5.50
2019-01-16T12:08:26.649Z,5.73
2019-01-16T12:10:56.608Z,6.60
2019-01-16T12:13:26.891Z,6.33
2019-01-16T12:15:57.307Z,6.80
2019-01-16T12:18:24.721Z,6.47
2019-01-16T12:20:52.121Z,6.67
2019-01-16T12:23:22.319Z,6.00
2019-01-16T12:26:08.485Z,7.00
2019-01-16T12:28:35.434Z,6.37
2019-01-16T12:31:05.625Z,6.40
2019-01-16T12:33:35.886Z,6.50
2019-01-16T12:36:12.376Z,6.33
2019-01-16T12:38:48.622Z,6.83
2019-01-16T12:41:34.384Z,6.90
2019-01-16T12:44:04.802Z,7.60
2019-01-16T12:46:50.313Z,6.93
2019-01-16T12:49:29.675Z,7.07
2019-01-16T12:51:57.084Z,6.03
2019-01-16T12:54:33.473Z,6.20
2019-01-16T12:57:00.875Z,6.17
2019-01-16T12:59:40.041Z,6.13
2019-01-16T13:02:13.366Z,6.13
2019-01-16T13:04:56.126Z,5.93
2019-01-16T13:07:41.744Z,5.90
2019-01-16T13:10:27.584Z,6.33
2019-01-16T13:13:13.639Z,5.53
2019-01-16T13:15:46.867Z,6.60
2019-01-16T13:18:14.265Z,6.23
2019-01-16T13:20:56.673Z,5.93
2019-01-16T13:23:29.703Z,5.73
2019-01-16T13:26:02.921Z,5.73
2019-01-16T13:28:30.326Z,5.77
2019-01-16T13:31:06.350Z,5.30
2019-01-16T13:33:33.786Z,5.00
2019-01-16T13:36:16.292Z,5.90
2019-01-16T13:38:43.742Z,5.90
2019-01-16T13:41:19.829Z,5.00
2019-01-16T13:43:47.276Z,5.03
2019-01-16T13:46:14.673Z,5.27
2019-01-16T13:48:57.330Z,5.47
2019-01-16T13:51:24.737Z,5.57
2019-01-16T13:53:54.893Z,4.90
2019-01-16T13:56:22.257Z,4.63
2019-01-16T13:58:55.261Z,18.13
2019-01-16T14:01:22.751Z,6.53
2019-01-16T14:04:02.135Z,5.73
2019-01-16T14:06:32.507Z,4.77
2019-01-16T14:09:18.207Z,5.33
2019-01-16T14:11:54.972Z,5.43
2019-01-16T14:14:31.321Z,5.00
2019-01-16T14:16:58.742Z,5.17
2019-01-16T14:19:35.057Z,5.73
2019-01-16T14:22:20.450Z,5.20
2019-01-16T14:24:47.851Z,5.20
2019-01-16T14:27:18.243Z,5.27
2019-01-16T14:29:48.237Z,6.07
2019-01-16T14:32:15.707Z,5.03
2019-01-16T14:35:01.192Z,4.80
2019-01-16T14:37:46.534Z,5.47
2019-01-16T14:40:32.117Z,6.20
2019-01-16T14:43:08.428Z,5.70
2019-01-16T14:45:54.140Z,6.07
2019-01-16T14:48:24.350Z,5.47
2019-01-16T14:51:00.653Z,5.10
2019-01-16T14:53:28.084Z,5.37
2019-01-16T14:56:01.513Z,5.67
2019-01-16T14:58:44.015Z,5.37
2019-01-16T15:01:17.641Z,5.60
2019-01-16T15:04:03.114Z,5.80
2019-01-16T15:06:39.353Z,5.60
2019-01-16T15:09:09.226Z,5.20
2019-01-16T15:11:45.567Z,5.10
2019-01-16T15:14:22.951Z,5.07
2019-01-16T15:16:52.357Z,5.87
2019-01-16T15:19:28.837Z,5.43
2019-01-16T15:22:06.424Z,5.07
2019-01-16T15:24:32.371Z,5.87
2019-01-16T15:27:02.755Z,5.63
2019-01-16T15:29:30.202Z,5.20
2019-01-16T15:32:00.430Z,6.20
2019-01-16T15:34:45.835Z,5.60
2019-01-16T15:37:13.235Z,6.07
2019-01-16T15:39:49.492Z,7.50
2019-01-16T15:42:34.925Z,5.30
2019-01-16T15:45:14.378Z,6.47
2019-01-16T15:47:44.277Z,9.13
2019-01-16T15:50:23.919Z,6.20
2019-01-16T15:53:02.884Z,6.80
2019-01-16T15:55:42.112Z,6.47
2019-01-16T15:58:12.036Z,6.43
2019-01-16T16:00:42.374Z,5.80
2019-01-16T16:03:09.759Z,6.50
2019-01-16T16:05:45.959Z,6.83
2019-01-16T16:08:18.982Z,6.43
2019-01-16T16:10:52.229Z,5.67
2019-01-16T16:13:38.075Z,6.50
2019-01-16T16:16:05.489Z,6.50
2019-01-16T16:18:46.346Z,5.97
2019-01-16T16:21:30.320Z,6.30
2019-01-16T16:24:03.355Z,6.07
2019-01-16T16:26:48.859Z,6.57
2019-01-16T16:29:21.985Z,6.17
2019-01-16T16:32:07.631Z,7.20
2019-01-16T16:34:53.235Z,6.30
2019-01-16T16:37:20.646Z,7.60
2019-01-16T16:39:59.876Z,7.30
2019-01-16T16:42:39.352Z,7.40
2019-01-16T16:45:18.913Z,7.30
2019-01-16T16:47:49.156Z,7.80
2019-01-16T16:50:25.641Z,7.93
2019-01-16T16:52:53.075Z,8.93
2019-01-16T16:55:23.437Z,12.07
2019-01-16T16:58:02.762Z,8.63
2019-01-16T17:00:48.654Z,8.23
2019-01-16T17:03:30.843Z,8.53
2019-01-16T17:06:01.348Z,8.13
2019-01-16T17:08:43.961Z,8.73
2019-01-16T17:11:11.378Z,8.70
2019-01-16T17:13:48.920Z,8.97
2019-01-16T17:16:17.634Z,9.43
2019-01-16T17:18:45.076Z,10.40
2019-01-16T17:21:12.489Z,10.23
2019-01-16T17:23:58.174Z,11.17
2019-01-16T17:26:34.336Z,10.77
2019-01-16T17:29:20.087Z,9.63
2019-01-16T17:31:59.353Z,10.43
2019-01-16T17:34:29.708Z,10.40
2019-01-16T17:36:57.111Z,10.23
2019-01-16T17:39:30.134Z,11.30
2019-01-16T17:42:00.275Z,10.93
2019-01-16T17:44:39.390Z,11.53
2019-01-16T17:47:06.835Z,11.47
2019-01-16T17:49:39.958Z,11.20
2019-01-16T17:52:07.376Z,11.33
2019-01-16T17:54:40.445Z,11.03
2019-01-16T17:57:19.723Z,10.60
2019-01-16T17:59:47.140Z,10.60
2019-01-16T18:02:32.861Z,11.30
2019-01-16T18:05:03.082Z,10.53
2019-01-16T18:07:33.232Z,11.57
2019-01-16T18:10:03.918Z,10.87
2019-01-16T18:12:52.178Z,10.60
2019-01-16T18:15:19.604Z,11.30
2019-01-16T18:18:05.305Z,9.53
2019-01-16T18:20:47.589Z,10.80
2019-01-16T18:23:15.043Z,10.57
2019-01-16T18:25:45.112Z,10.87
2019-01-16T18:28:18.199Z,10.10
2019-01-16T18:31:03.802Z,10.60
2019-01-16T18:33:39.934Z,11.53
2019-01-16T18:36:07.376Z,10.47
2019-01-16T18:38:52.898Z,10.47
2019-01-16T18:41:23.254Z,10.63
2019-01-16T18:43:56.779Z,9.87
2019-01-16T18:46:30.295Z,10.30
2019-01-16T18:48:57.840Z,10.47
2019-01-16T18:51:37.316Z,10.47
2019-01-16T18:54:16.710Z,10.10
2019-01-16T18:56:44.157Z,10.53
2019-01-16T18:59:29.569Z,10.03
2019-01-16T19:01:59.729Z,10.70
2019-01-16T19:04:35.993Z,10.13
2019-01-16T19:07:21.819Z,9.63
2019-01-16T19:09:58.043Z,9.67
2019-01-16T19:12:25.450Z,10.70
2019-01-16T19:14:58.647Z,10.07
2019-01-16T19:17:26.077Z,11.20
2019-01-16T19:20:11.393Z,10.83
2019-01-16T19:22:41.426Z,11.30
2019-01-16T19:25:27.083Z,11.00
2019-01-16T19:27:54.512Z,11.17
2019-01-16T19:30:21.931Z,11.97
2019-01-16T19:32:49.350Z,11.00
2019-01-16T19:35:25.710Z,11.03
2019-01-16T19:37:53.119Z,11.20
2019-01-16T19:40:20.537Z,11.87
2019-01-16T19:42:47.982Z,11.17
2019-01-16T19:45:21.518Z,11.53
2019-01-16T19:48:07.290Z,10.97
2019-01-16T19:50:40.653Z,12.47
2019-01-16T19:53:14.210Z,11.23
2019-01-16T19:55:59.824Z,10.97
2019-01-16T19:58:29.851Z,11.37
2019-01-16T20:01:03.235Z,11.77
2019-01-16T20:03:48.934Z,10.67
2019-01-16T20:06:19.176Z,10.60
2019-01-16T20:09:04.992Z,10.47
2019-01-16T20:11:50.704Z,11.27
2019-01-16T20:14:23.867Z,12.07
2019-01-16T20:17:09.319Z,10.53
2019-01-16T20:19:51.737Z,10.63
2019-01-16T20:22:34.039Z,10.33
2019-01-16T20:25:10.187Z,10.70
2019-01-16T20:27:55.740Z,11.20
2019-01-16T20:30:25.909Z,10.83
2019-01-16T20:33:02.170Z,11.30
2019-01-16T20:35:29.679Z,11.30
2019-01-16T20:37:58.807Z,10.03
2019-01-16T20:40:42.995Z,10.20
2019-01-16T20:43:10.386Z,11.47
2019-01-16T20:45:40.663Z,10.47
2019-01-16T20:48:13.654Z,10.53
2019-01-16T20:50:49.986Z,10.73
2019-01-16T20:53:17.652Z,11.33
2019-01-16T20:55:45.933Z,10.53
2019-01-16T20:58:15.211Z,12.10
2019-01-16T21:01:00.768Z,11.63
2019-01-16T21:03:46.309Z,11.03
2019-01-16T21:06:25.723Z,11.20
2019-01-16T21:08:55.936Z,10.47
2019-01-16T21:11:41.573Z,11.13
2019-01-16T21:14:20.982Z,10.60
2019-01-16T21:16:51.361Z,10.63
2019-01-16T21:19:18.754Z,11.60
2019-01-16T21:21:46.180Z,11.33
2019-01-16T21:24:16.319Z,11.07
2019-01-16T21:26:49.485Z,11.13
2019-01-16T21:29:35.082Z,11.10
2019-01-16T21:32:05.269Z,11.77
2019-01-16T21:34:51.066Z,12.40
2019-01-16T21:37:18.508Z,12.10
2019-01-16T21:39:46.025Z,12.90
2019-01-16T21:42:25.726Z,12.70
2019-01-16T21:44:55.977Z,11.97
2019-01-16T21:47:41.744Z,13.20
2019-01-16T21:50:24.188Z,14.80
2019-01-16T21:52:51.612Z,16.13
2019-01-16T21:55:28.236Z,15.03
2019-01-16T21:58:13.959Z,15.07
2019-01-16T22:00:41.413Z,15.33
2019-01-16T22:03:20.568Z,14.67
2019-01-16T22:05:47.996Z,14.17
2019-01-16T22:08:15.391Z,14.53
2019-01-16T22:11:01.032Z,14.50
2019-01-16T22:13:37.444Z,15.37
2019-01-16T22:16:16.727Z,16.13
2019-01-16T22:18:47.159Z,15.57
2019-01-16T22:21:23.531Z,17.20
2019-01-16T22:24:09.022Z,17.90
2019-01-16T22:26:45.035Z,17.80
2019-01-16T22:29:12.533Z,17.60
2019-01-16T22:31:51.885Z,17.33
2019-01-16T22:34:19.296Z,18.17
2019-01-16T22:36:55.437Z,20.07
2019-01-16T22:39:31.896Z,17.83
2019-01-16T22:42:14.171Z,18.70
2019-01-16T22:44:59.719Z,18.17
2019-01-16T22:47:39.384Z,18.30
2019-01-16T22:50:12.607Z,19.10
2019-01-16T22:52:57.916Z,18.43
2019-01-16T22:55:28.078Z,18.13
2019-01-16T22:58:01.029Z,18.30
2019-01-16T23:00:28.432Z,18.90
2019-01-16T23:02:55.859Z,20.13
2019-01-16T23:05:41.538Z,18.23
2019-01-16T23:08:14.983Z,17.53
2019-01-16T23:10:42.376Z,16.67
2019-01-16T23:13:27.957Z,17.77
2019-01-16T23:15:57.972Z,16.77
2019-01-16T23:18:43.778Z,17.83
2019-01-16T23:21:17.026Z,17.83
2019-01-16T23:23:56.350Z,19.40
2019-01-16T23:26:26.660Z,17.17
2019-01-16T23:29:06.192Z,18.00
2019-01-16T23:31:33.785Z,17.97
2019-01-16T23:34:19.517Z,19.30
2019-01-16T23:37:05.349Z,19.97
2019-01-16T23:39:32.753Z,19.40
2019-01-16T23:42:03.111Z,20.10
2019-01-16T23:44:30.515Z,20.63
2019-01-16T23:46:57.955Z,20.57
2019-01-16T23:49:25.400Z,21.60
2019-01-16T23:51:52.802Z,21.57
2019-01-16T23:54:22.762Z,22.77
2019-01-16T23:56:56.250Z,22.20
2019-01-16T23:59:26.602Z,22.67
